Time;durP1;ratioP1;P1;durP2;ratioP2;P2;SDS_P1;SDS_P2;PMS_P1;PMS_P2;Temp;Humidity;BMP_temperature;BMP_pressure;BME280_temperature;BME280_humidity;BME280_pressure;Samples;Min_cycle;Max_cycle;Signal;HPM_P1;HPM_P2
2023/03/26 00:00:43;;;;;;;1999.90;999.90;;;;;;;8.32;100.00;94879.81;5087033;28;20202;-59
2023/03/26 00:03:12;;;;;;;1999.90;999.90;;;;;;;8.38;100.00;94880.91;5087504;28;20173;-58
2023/03/26 00:05:38;;;;;;;1999.90;999.90;;;;;;;8.41;100.00;94874.69;5086963;28;20173;-58
2023/03/26 00:08:04;;;;;;;1999.90;999.90;;;;;;;8.43;100.00;94877.78;5086849;28;20182;-59
2023/03/26 00:10:29;;;;;;;1999.90;999.90;;;;;;;8.43;100.00;94877.00;5087451;28;20203;-59
2023/03/26 00:12:54;;;;;;;1999.90;999.90;;;;;;;8.43;100.00;94871.56;5087112;28;20207;-59
2023/03/26 00:15:20;;;;;;;1999.90;999.90;;;;;;;8.42;100.00;94876.22;5087517;28;20177;-59
2023/03/26 00:17:46;;;;;;;1999.90;999.90;;;;;;;8.42;100.00;94876.22;5086929;28;20176;-58
2023/03/26 00:20:12;;;;;;;1999.90;999.90;;;;;;;8.44;100.00;94873.09;5087269;28;20173;-59
2023/03/26 00:22:39;;;;;;;1999.90;999.90;;;;;;;8.39;100.00;94870.81;5087165;28;20207;-59
2023/03/26 00:25:06;;;;;;;1999.90;999.90;;;;;;;8.33;100.00;94866.97;5086355;28;20260;-58
2023/03/26 00:27:32;;;;;;;1999.90;999.90;;;;;;;8.29;100.00;94860.78;5086473;28;20196;-58
2023/03/26 00:29:59;;;;;;;1999.90;999.90;;;;;;;8.25;100.00;94854.59;5086341;28;20270;-59
2023/03/26 00:32:26;;;;;;;1999.90;999.90;;;;;;;8.20;100.00;94863.94;5086432;28;20212;-59
2023/03/26 00:34:54;;;;;;;1999.90;999.90;;;;;;;8.11;100.00;94860.91;5086507;28;20196;-58
2023/03/26 00:37:25;;;;;;;1999.90;999.90;;;;;;;8.07;100.00;94854.72;5086373;28;20181;-60
2023/03/26 00:39:53;;;;;;;1999.90;999.90;;;;;;;7.97;100.00;94850.13;5086829;28;20176;-59
2023/03/26 00:42:19;;;;;;;1999.90;999.90;;;;;;;7.94;100.00;94845.50;5086315;28;20170;-58
2023/03/26 00:44:45;;;;;;;1999.90;999.90;;;;;;;7.93;100.00;94846.66;5086805;28;20214;-59
2023/03/26 00:47:11;;;;;;;1999.90;999.90;;;;;;;7.94;100.00;94848.22;5086222;28;20173;-58
2023/03/26 00:49:38;;;;;;;1999.90;999.90;;;;;;;7.91;100.00;94846.31;5086777;28;20191;-58
2023/03/26 00:52:07;;;;;;;1999.90;999.90;;;;;;;7.87;100.00;94834.66;5086618;28;20172;-58
2023/03/26 00:54:33;;;;;;;1999.90;999.90;;;;;;;7.82;100.00;94837.81;5085941;28;20205;-58
2023/03/26 00:56:58;;;;;;;1999.90;999.90;;;;;;;7.76;100.00;94825.06;5086256;28;20183;-59
2023/03/26 00:59:24;;;;;;;1999.90;999.90;;;;;;;7.77;100.00;94830.09;5084795;28;20173;-58
2023/03/26 01:01:50;;;;;;;1999.90;999.90;;;;;;;7.75;100.00;94846.00;5085868;28;20169;-58
2023/03/26 01:04:29;;;;;;;1999.90;999.90;;;;;;;7.75;100.00;94835.16;5085987;28;20173;-59
2023/03/26 01:06:57;;;;;;;1999.90;999.90;;;;;;;7.71;100.00;94845.25;5086403;28;20288;-60
2023/03/26 01:09:31;;;;;;;1999.90;999.90;;;;;;;7.66;100.00;94845.69;5085869;28;20178;-59
2023/03/26 01:11:59;;;;;;;1999.90;999.90;;;;;;;7.68;100.00;94837.91;5086614;28;20167;-59
2023/03/26 01:14:27;;;;;;;1999.90;999.90;;;;;;;7.65;100.00;94835.97;5086106;28;20197;-59
2023/03/26 01:16:56;;;;;;;1999.90;999.90;;;;;;;7.65;100.00;94844.13;5086188;28;20166;-59
2023/03/26 01:19:32;;;;;;;1999.90;999.90;;;;;;;7.59;100.00;94843.03;5086188;28;20169;-59
2023/03/26 01:21:59;;;;;;;1999.90;999.90;;;;;;;7.58;100.00;94844.16;5086103;28;20169;-59
2023/03/26 01:24:25;;;;;;;1999.90;999.90;;;;;;;7.53;100.00;94836.44;5086293;28;20234;-57
2023/03/26 01:26:57;;;;;;;1999.90;999.90;;;;;;;7.46;100.00;94838.44;5085694;28;20175;-58
2023/03/26 01:29:33;;;;;;;1999.90;999.90;;;;;;;7.44;100.00;94838.06;5085447;28;20213;-57
2023/03/26 01:32:12;;;;;;;1999.90;999.90;;;;;;;7.43;100.00;94831.84;5086005;28;20255;-58
2023/03/26 01:35:12;;;;;;;1999.90;999.90;;;;;;;7.38;100.00;94829.56;5085794;28;20193;-58
2023/03/26 01:38:01;;;;;;;1999.90;999.90;;;;;;;7.33;100.00;94821.84;5085767;28;20159;-58
2023/03/26 01:40:55;;;;;;;1999.90;999.90;;;;;;;7.32;100.00;94817.53;5085741;28;20164;-58
2023/03/26 01:43:28;;;;;;;1999.90;999.90;;;;;;;7.34;100.00;94822.59;5062315;28;20181;-58
2023/03/26 01:45:55;;;;;;;1999.90;999.90;;;;;;;7.35;100.00;94814.03;5085630;28;20248;-58
2023/03/26 01:48:30;;;;;;;1999.90;999.90;;;;;;;7.34;100.00;94807.06;5085032;28;20165;-58
2023/03/26 01:50:57;;;;;;;1999.90;999.90;;;;;;;7.37;100.00;94811.72;5085248;28;20217;-58
2023/03/26 01:53:23;;;;;;;1999.90;999.90;;;;;;;7.35;100.00;94808.59;5085418;28;20203;-59
2023/03/26 01:55:54;;;;;;;1999.90;999.90;;;;;;;7.33;100.00;94805.53;5084887;28;20200;-58
2023/03/26 01:58:35;;;;;;;1999.90;999.90;;;;;;;7.27;100.00;94807.09;5085204;28;20247;-59
2023/03/26 02:01:03;;;;;;;1999.90;999.90;;;;;;;7.29;100.00;94810.22;5085266;28;20279;-58
2023/03/26 02:03:38;;;;;;;1999.90;999.90;;;;;;;7.27;100.00;94796.25;5085360;28;20172;-59
2023/03/26 02:06:29;;;;;;;1999.90;999.90;;;;;;;7.22;100.00;94788.53;5084942;28;20203;-58
2023/03/26 02:09:01;;;;;;;1999.90;999.90;;;;;;;7.22;100.00;94783.09;5084357;28;20237;-59
2023/03/26 02:11:27;;;;;;;1999.90;999.90;;;;;;;7.20;100.00;94790.84;5085518;28;20168;-59
2023/03/26 02:13:52;;;;;;;1999.90;999.90;;;;;;;7.16;100.00;94779.25;5084680;28;20193;-59
2023/03/26 02:16:19;;;;;;;1999.90;999.90;;;;;;;7.13;100.00;94779.28;5084548;28;20187;-59
2023/03/26 02:18:50;;;;;;;1999.90;999.90;;;;;;;7.12;100.00;94778.50;5084090;28;20161;-59
2023/03/26 02:21:21;;;;;;;1999.90;999.90;;;;;;;7.18;100.00;94776.13;5084986;28;20161;-59
2023/03/26 02:23:49;;;;;;;1999.90;999.90;;;;;;;7.19;100.00;94778.44;5084738;28;20232;-59
2023/03/26 02:26:17;;;;;;;1999.90;999.90;;;;;;;7.16;100.00;94768.38;5084797;28;20165;-59
2023/03/26 02:28:42;;;;;;;1999.90;999.90;;;;;;;7.19;100.00;94772.25;5084114;28;20217;-59
2023/03/26 02:31:12;;;;;;;1999.90;999.90;;;;;;;7.22;100.00;94774.16;5084848;28;20172;-59
2023/03/26 02:33:38;;;;;;;1999.90;999.90;;;;;;;7.22;100.00;94772.25;5084763;28;20220;-59
2023/03/26 02:36:04;;;;;;;1999.90;999.90;;;;;;;7.24;100.00;94772.59;5084993;28;20165;-59
2023/03/26 02:38:34;;;;;;;1999.90;999.90;;;;;;;7.28;100.00;94767.16;5084140;28;20187;-59
2023/03/26 02:41:03;;;;;;;1999.90;999.90;;;;;;;7.28;100.00;94759.78;5084097;28;20168;-59
2023/03/26 02:43:29;;;;;;;1999.90;999.90;;;;;;;7.32;100.00;94760.50;5084251;28;20173;-59
2023/03/26 02:45:54;;;;;;;1999.90;999.90;;;;;;;7.37;100.00;94751.97;5084645;28;20165;-58
2023/03/26 02:48:19;;;;;;;1999.90;999.90;;;;;;;7.40;100.00;94751.19;5084293;28;20169;-59
2023/03/26 02:50:49;;;;;;;1999.90;999.90;;;;;;;7.41;100.00;94752.72;5084224;28;20165;-59
2023/03/26 02:53:17;;;;;;;1999.90;999.90;;;;;;;7.44;100.00;94751.94;5083826;28;20201;-59
2023/03/26 02:55:42;;;;;;;1999.90;999.90;;;;;;;7.42;100.00;94740.66;5083906;28;20165;-59
2023/03/26 02:58:08;;;;;;;1999.90;999.90;;;;;;;7.43;100.00;94739.50;5084187;28;20176;-59
2023/03/26 03:00:34;;;;;;;1999.90;999.90;;;;;;;7.46;100.00;94746.84;5084658;28;20168;-59
2023/03/26 03:03:03;;;;;;;1999.90;999.90;;;;;;;7.43;100.00;94739.50;5083854;28;20169;-59
2023/03/26 03:05:30;;;;;;;1999.90;999.90;;;;;;;7.47;100.00;94734.06;5084425;28;20184;-58
2023/03/26 03:07:57;;;;;;;1999.90;999.90;;;;;;;7.46;100.00;94732.50;5083610;28;20163;-58
2023/03/26 03:10:26;;;;;;;1999.90;999.90;;;;;;;7.43;100.00;94723.19;5084354;28;20188;-59
2023/03/26 03:12:52;;;;;;;1999.90;999.90;;;;;;;7.42;100.00;94718.94;5083457;28;20195;-58
2023/03/26 03:15:18;;;;;;;1999.90;999.90;;;;;;;7.44;100.00;94724.75;5084055;28;20204;-58
2023/03/26 03:17:44;;;;;;;1999.90;999.90;;;;;;;7.41;100.00;94708.47;5083787;28;20194;-58
2023/03/26 03:20:10;;;;;;;1999.90;999.90;;;;;;;7.36;100.00;94698.81;5084244;28;20169;-59
2023/03/26 03:22:36;;;;;;;1999.90;999.90;;;;;;;7.30;100.00;94695.00;5086987;28;20157;-59
2023/03/26 03:25:03;;;;;;;1999.90;999.90;;;;;;;7.27;100.00;94697.72;5087778;28;20241;-59
2023/03/26 03:27:29;;;;;;;1999.90;999.90;;;;;;;7.25;100.00;94689.97;5088327;28;20164;-59
2023/03/26 03:29:55;;;;;;;1999.90;999.90;;;;;;;7.25;100.00;94689.97;5087574;28;20276;-59
2023/03/26 03:32:21;;;;;;;1999.90;999.90;;;;;;;7.28;100.00;94683.75;5087698;28;20243;-59
2023/03/26 03:34:49;;;;;;;1999.90;999.90;;;;;;;7.29;100.00;94679.88;5088200;28;20189;-59
2023/03/26 03:37:18;;;;;;;1999.90;999.90;;;;;;;7.30;100.00;94675.97;5087655;28;20168;-59
2023/03/26 03:39:44;;;;;;;1999.90;999.90;;;;;;;7.31;100.00;94682.94;5087903;28;20174;-60
2023/03/26 03:42:09;;;;;;;1999.90;999.90;;;;;;;7.32;100.00;94684.47;5087744;28;20168;-59
2023/03/26 03:44:35;;;;;;;1999.90;999.90;;;;;;;7.32;100.00;94689.91;5087623;28;20169;-59
2023/03/26 03:47:00;;;;;;;1999.90;999.90;;;;;;;7.33;100.00;94683.34;5087141;28;20162;-59
2023/03/26 03:49:26;;;;;;;1999.90;999.90;;;;;;;7.41;100.00;94671.25;5087337;28;20168;-59
2023/03/26 03:51:51;;;;;;;1999.90;999.90;;;;;;;7.41;100.00;94676.66;5087319;28;20240;-59
2023/03/26 03:54:17;;;;;;;1999.90;999.90;;;;;;;7.42;100.00;94682.84;5087490;28;20204;-59
2023/03/26 03:56:44;;;;;;;1999.90;999.90;;;;;;;7.43;100.00;94679.00;5087204;28;20453;-62
2023/03/26 03:59:10;;;;;;;1999.90;999.90;;;;;;;7.39;100.00;94679.00;5087979;28;20164;-58
2023/03/26 04:01:35;;;;;;;1999.90;999.90;;;;;;;7.39;100.00;94681.72;5086984;28;20168;-59
2023/03/26 04:04:01;;;;;;;1999.90;999.90;;;;;;;7.41;100.00;94676.66;5087074;28;20199;-59
2023/03/26 04:06:29;;;;;;;1999.90;999.90;;;;;;;7.42;100.00;94670.06;5087033;28;20165;-59
2023/03/26 04:08:57;;;;;;;1999.90;999.90;;;;;;;7.45;100.00;94666.53;5087020;28;20173;-58
2023/03/26 04:11:22;;;;;;;1999.90;999.90;;;;;;;7.46;100.00;94657.22;5087623;28;20206;-58
2023/03/26 04:13:48;;;;;;;1999.90;999.90;;;;;;;7.49;100.00;94661.84;5087021;28;20201;-59
2023/03/26 04:16:13;;;;;;;1999.90;999.90;;;;;;;7.50;100.00;94657.97;5087385;28;20161;-59
2023/03/26 04:18:39;;;;;;;1999.90;999.90;;;;;;;7.51;100.00;94654.09;5087135;28;20163;-59
2023/03/26 04:21:06;;;;;;;1999.90;999.90;;;;;;;7.49;100.00;94651.00;5087220;28;20230;-59
2023/03/26 04:23:33;;;;;;;1999.90;999.90;;;;;;;7.48;100.00;94652.16;5086823;28;20160;-58
2023/03/26 04:26:05;;;;;;;1999.90;999.90;;;;;;;7.47;100.00;94647.88;5087375;28;20317;-58
2023/03/26 04:28:45;;;;;;;1999.90;999.90;;;;;;;7.45;100.00;94636.66;5086889;28;20228;-58
2023/03/26 04:31:14;;;;;;;1999.90;999.90;;;;;;;7.43;100.00;94643.69;5087055;28;20164;-58
2023/03/26 04:33:45;;;;;;;1999.90;999.90;;;;;;;7.40;100.00;94642.53;5086149;28;20238;-58
2023/03/26 04:36:11;;;;;;;1999.90;999.90;;;;;;;7.41;100.00;94638.66;5087008;28;20156;-58
2023/03/26 04:38:41;;;;;;;1999.90;999.90;;;;;;;7.42;100.00;94634.75;5086558;28;20169;-58
2023/03/26 04:41:10;;;;;;;1999.90;999.90;;;;;;;7.42;100.00;94632.03;5086261;28;20169;-58
2023/03/26 04:43:41;;;;;;;1999.90;999.90;;;;;;;7.44;100.00;94626.97;5086909;28;20165;-58
2023/03/26 04:46:07;;;;;;;1999.90;999.90;;;;;;;7.46;100.00;94624.63;5086752;28;20240;-58
2023/03/26 04:48:32;;;;;;;1999.90;999.90;;;;;;;7.47;100.00;94615.28;5086322;28;20179;-59
2023/03/26 04:50:58;;;;;;;1999.90;999.90;;;;;;;7.52;100.00;94622.25;5086171;28;20240;-58
2023/03/26 04:53:23;;;;;;;1999.90;999.90;;;;;;;7.53;100.00;94619.13;5085965;28;20196;-59
2023/03/26 04:56:00;;;;;;;1999.90;999.90;;;;;;;7.56;100.00;94601.25;5086162;28;20168;-59
2023/03/26 04:58:31;;;;;;;1999.90;999.90;;;;;;;7.55;100.00;94610.59;5086652;28;20169;-58
2023/03/26 05:00:59;;;;;;;1999.90;999.90;;;;;;;7.56;100.00;94615.63;5086468;28;20158;-58
2023/03/26 05:03:29;;;;;;;1999.90;999.90;;;;;;;7.58;100.00;94609.78;5085944;28;20175;-58
2023/03/26 05:05:56;;;;;;;1999.90;999.90;;;;;;;7.57;100.00;94608.25;5086450;28;20206;-58
2023/03/26 05:08:21;;;;;;;1999.90;999.90;;;;;;;7.59;100.00;94605.88;5086416;28;20161;-58
2023/03/26 05:10:47;;;;;;;1999.90;999.90;;;;;;;7.58;100.00;94588.78;5086211;28;20183;-59
2023/03/26 05:13:12;;;;;;;1999.90;999.90;;;;;;;7.61;100.00;94593.44;5086246;28;20193;-58
2023/03/26 05:15:37;;;;;;;1999.90;999.90;;;;;;;7.62;100.00;94583.34;5086498;28;20168;-58
2023/03/26 05:18:03;;;;;;;1999.90;999.90;;;;;;;7.58;100.00;94577.94;5085911;28;20168;-58
2023/03/26 05:20:29;;;;;;;1999.90;999.90;;;;;;;7.56;100.00;94579.50;5086242;28;20171;-58
2023/03/26 05:22:55;;;;;;;1999.90;999.90;;;;;;;7.56;100.00;94580.28;5086418;28;20169;-58
2023/03/26 05:25:21;;;;;;;1999.90;999.90;;;;;;;7.59;100.00;94573.28;5085470;28;20183;-58
2023/03/26 05:27:47;;;;;;;1999.90;999.90;;;;;;;7.59;100.00;94568.63;5085342;28;20210;-59
2023/03/26 05:30:16;;;;;;;1999.90;999.90;;;;;;;7.60;100.00;94564.72;5085932;28;20176;-58
2023/03/26 05:32:42;;;;;;;1999.90;999.90;;;;;;;7.64;100.00;94567.41;5085770;28;20169;-59
2023/03/26 05:35:08;;;;;;;1999.90;999.90;;;;;;;7.65;100.00;94577.88;5085509;28;20243;-58
2023/03/26 05:37:34;;;;;;;1999.90;999.90;;;;;;;7.69;100.00;94578.63;5085305;28;20165;-58
2023/03/26 05:39:59;;;;;;;1999.90;999.90;;;;;;;7.74;100.00;94577.38;5085179;28;20172;-59
2023/03/26 05:42:25;;;;;;;1999.90;999.90;;;;;;;7.77;100.00;94569.22;5085108;28;20169;-58
2023/03/26 05:44:50;;;;;;;1999.90;999.90;;;;;;;7.84;100.00;94574.56;5084256;28;20173;-59
2023/03/26 05:47:16;;;;;;;1999.90;999.90;;;;;;;7.88;100.00;94569.09;5085920;28;20192;-59
2023/03/26 05:49:41;;;;;;;1999.90;999.90;;;;;;;7.93;100.00;94569.41;5085491;28;20268;-60
2023/03/26 05:52:07;;;;;;;1999.90;999.90;;;;;;;7.99;100.00;94564.28;5085007;28;20165;-58
2023/03/26 05:54:32;;;;;;;1999.90;999.90;;;;;;;8.04;100.00;94567.34;5085552;28;20205;-59
2023/03/26 05:56:58;;;;;;;1999.90;999.90;;;;;;;8.09;100.00;94563.41;5085314;28;20200;-60
2023/03/26 05:59:24;;;;;;;1999.90;999.90;;;;;;;8.11;100.00;94550.16;5085442;28;20169;-58
2023/03/26 06:01:49;;;;;;;1999.90;999.90;;;;;;;8.09;100.00;94547.84;5084688;28;20165;-58
2023/03/26 06:04:16;;;;;;;1999.90;999.90;;;;;;;8.14;100.00;94550.13;5084791;28;20171;-60
2023/03/26 06:06:43;;;;;;;1999.90;999.90;;;;;;;8.18;100.00;94539.97;5084646;28;20249;-59
2023/03/26 06:09:12;;;;;;;1999.90;999.90;;;;;;;8.16;100.00;94536.88;5084577;28;20170;-58
2023/03/26 06:11:38;;;;;;;1999.90;999.90;;;;;;;8.19;100.00;94536.06;5084614;28;20176;-59
2023/03/26 06:14:04;;;;;;;1999.90;999.90;;;;;;;8.21;100.00;94535.66;5084542;28;20204;-59
2023/03/26 06:16:29;;;;;;;1999.90;999.90;;;;;;;8.24;100.00;94527.50;5084916;28;20170;-59
2023/03/26 06:18:56;;;;;;;1999.90;999.90;;;;;;;8.24;100.00;94532.16;5084436;28;20242;-59
2023/03/26 06:21:21;;;;;;;1999.90;999.90;;;;;;;8.31;100.00;94532.06;5084869;28;20244;-60
2023/03/26 06:23:47;;;;;;;1999.90;999.90;;;;;;;8.40;100.00;94535.03;5084350;28;20203;-60
2023/03/26 06:26:13;;;;;;;1999.90;999.90;;;;;;;8.44;100.00;94536.53;5084320;28;20165;-58
2023/03/26 06:28:39;;;;;;;1999.90;999.90;;;;;;;8.36;100.00;94524.22;5084433;28;20269;-58
2023/03/26 06:31:04;;;;;;;1999.90;999.90;;;;;;;8.43;100.00;94529.56;5084252;28;20161;-59
2023/03/26 06:33:30;;;;;;;1999.90;999.90;;;;;;;8.54;100.00;94523.94;5084193;28;20185;-59
2023/03/26 06:35:56;;;;;;;1999.90;999.90;;;;;;;8.62;100.00;94520.72;5084602;28;20222;-59
2023/03/26 06:38:22;;;;;;;1999.90;999.90;;;;;;;8.63;100.00;94521.50;5084187;28;20161;-59
2023/03/26 06:40:47;;;;;;;1999.90;999.90;;;;;;;8.68;100.00;94515.59;5084115;28;20161;-59
2023/03/26 06:43:13;;;;;;;1999.90;999.90;;;;;;;8.76;100.00;94509.63;5084530;28;20165;-58
2023/03/26 06:45:38;;;;;;;1999.90;999.90;;;;;;;8.82;100.00;94507.94;5084138;28;20165;-58
2023/03/26 06:48:04;;;;;;;1999.90;999.90;;;;;;;8.90;100.00;94508.63;5084569;28;20202;-60
2023/03/26 06:50:31;;;;;;;1999.90;999.90;;;;;;;8.99;100.00;94509.63;5084751;28;20161;-60
2023/03/26 06:52:56;;;;;;;1999.90;999.90;;;;;;;9.01;100.00;94504.56;5084607;28;20228;-59
2023/03/26 06:55:22;;;;;;;1999.90;999.90;;;;;;;9.05;100.00;94507.19;5083869;28;20181;-59
2023/03/26 06:57:52;;;;;;;1999.90;999.90;;;;;;;9.07;100.00;94513.75;5083818;28;20161;-59
2023/03/26 07:00:19;;;;;;;1999.90;999.90;;;;;;;9.08;100.00;94509.88;5084061;28;20169;-58
2023/03/26 07:02:45;;;;;;;1999.90;999.90;;;;;;;9.11;100.00;94511.75;5084613;28;20215;-59
2023/03/26 07:05:11;;;;;;;1999.90;999.90;;;;;;;9.14;100.00;94507.44;5083815;28;20165;-59
2023/03/26 07:07:37;;;;;;;1999.90;999.90;;;;;;;9.12;100.00;94509.81;5084268;28;20161;-59
2023/03/26 07:10:03;;;;;;;1999.90;999.90;;;;;;;9.10;100.00;94502.03;5083618;28;20165;-60
2023/03/26 07:12:29;;;;;;;1999.90;999.90;;;;;;;9.08;100.00;94482.66;5084119;28;20169;-59
2023/03/26 07:14:54;;;;;;;1999.90;999.90;;;;;;;9.01;100.00;94482.75;5083524;28;20219;-59
2023/03/26 07:17:19;;;;;;;1999.90;999.90;;;;;;;8.92;100.00;94473.56;5084139;28;20169;-59
2023/03/26 07:19:45;;;;;;;1999.90;999.90;;;;;;;8.87;100.00;94466.66;5083677;28;20328;-58
2023/03/26 07:22:19;;;;;;;1999.90;999.90;;;;;;;8.80;100.00;94466.00;5083601;28;20200;-58
2023/03/26 07:24:45;;;;;;;1999.90;999.90;;;;;;;8.79;100.00;94454.38;5084521;28;20164;-57
2023/03/26 07:27:26;;;;;;;1999.90;999.90;;;;;;;8.77;100.00;94443.09;5083755;28;20162;-59
2023/03/26 07:30:01;;;;;;;1999.90;999.90;;;;;;;8.66;100.00;94425.41;5083944;28;20276;-59
2023/03/26 07:32:36;;;;;;;1999.90;999.90;;;;;;;8.61;100.00;94410.34;5083695;28;20175;-59
2023/03/26 07:35:09;;;;;;;1999.90;999.90;;;;;;;8.55;100.00;94384.78;5083999;28;20192;-60
2023/03/26 07:37:38;;;;;;;1999.90;999.90;;;;;;;8.56;100.00;94364.53;5083920;28;20172;-58
2023/03/26 07:40:07;;;;;;;1999.90;999.90;;;;;;;8.49;100.00;94353.03;5083616;28;20260;-60
2023/03/26 07:42:39;;;;;;;1999.90;999.90;;;;;;;8.46;100.00;94329.38;5083510;28;20168;-60
2023/03/26 07:45:40;;;;;;;1999.90;999.90;;;;;;;8.36;100.00;94312.06;5083502;28;20207;-60
2023/03/26 07:48:24;;;;;;;1999.90;999.90;;;;;;;8.36;100.00;94297.69;5052101;28;20205;-59
2023/03/26 07:50:50;;;;;;;1999.90;999.90;;;;;;;8.35;100.00;94280.59;5083967;28;20157;-59
2023/03/26 07:53:15;;;;;;;1999.90;999.90;;;;;;;8.32;100.00;94267.84;5083153;28;20189;-60
2023/03/26 07:55:59;;;;;;;1999.90;999.90;;;;;;;8.20;100.00;94248.59;5084263;28;20161;-58
2023/03/26 07:58:46;;;;;;;1999.90;999.90;;;;;;;8.26;100.00;94230.63;5083815;28;20161;-59
2023/03/26 08:01:36;;;;;;;1999.90;999.90;;;;;;;8.38;100.00;94200.88;5083344;28;20162;-59
2023/03/26 08:04:33;;;;;;;1999.90;999.90;;;;;;;8.42;100.00;94158.03;5083739;28;20158;-60
2023/03/26 08:07:06;;;;;;;1999.90;999.90;;;;;;;8.33;100.00;94133.38;5062743;28;20173;-60
2023/03/26 08:09:47;;;;;;;1999.90;999.90;;;;;;;8.41;100.00;94110.28;5087471;28;20206;-60
2023/03/26 08:12:25;;;;;;;1999.90;999.90;;;;;;;8.32;100.00;94093.78;5087258;28;20164;-60
2023/03/26 08:15:01;;;;;;;1999.90;999.90;;;;;;;8.22;100.00;94086.59;5087286;28;20199;-59
2023/03/26 08:17:52;;;;;;;1999.90;999.90;;;;;;;8.27;100.00;94048.03;5087606;28;20159;-59
2023/03/26 08:20:24;;;;;;;1999.90;999.90;;;;;;;8.21;100.00;94027.16;5087220;28;20154;-58
2023/03/26 08:23:01;;;;;;;1999.90;999.90;;;;;;;8.14;100.00;94025.38;5087130;28;20233;-59
2023/03/26 08:25:31;;;;;;;1999.90;999.90;;;;;;;8.16;100.00;94016.81;5087286;28;20157;-59
2023/03/26 08:28:16;;;;;;;1999.90;999.90;;;;;;;8.08;100.00;94035.19;5086309;28;20221;-58
2023/03/26 08:30:41;;;;;;;1999.90;999.90;;;;;;;8.09;100.00;94025.84;5086267;28;20162;-58
2023/03/26 08:33:19;;;;;;;1999.90;999.90;;;;;;;8.21;100.00;94027.97;5086870;28;20191;-58
2023/03/26 08:35:45;;;;;;;1999.90;999.90;;;;;;;8.23;100.00;94025.59;5086523;28;20157;-58
2023/03/26 08:38:13;;;;;;;1999.90;999.90;;;;;;;8.35;100.00;94024.94;5086659;28;20165;-59
2023/03/26 08:41:03;;;;;;;1999.90;999.90;;;;;;;8.36;100.00;94031.91;5086350;28;20168;-59
2023/03/26 08:43:32;;;;;;;1999.90;999.90;;;;;;;8.50;100.00;94036.28;5086591;28;20179;-59
2023/03/26 08:46:23;;;;;;;1999.90;999.90;;;;;;;8.60;100.00;94022.41;5086343;28;20157;-59
2023/03/26 08:49:14;;;;;;;1999.90;999.90;;;;;;;8.70;100.00;94031.50;5058115;28;20174;-60
2023/03/26 08:51:52;;;;;;;1999.90;999.90;;;;;;;8.94;100.00;94030.94;5086942;28;20179;-58
2023/03/26 08:54:32;;;;;;;1999.90;999.90;;;;;;;9.13;100.00;94030.09;5086239;28;20283;-58
2023/03/26 08:57:03;;;;;;;1999.90;999.90;;;;;;;9.16;100.00;94048.31;5086202;28;20157;-59
2023/03/26 09:00:04;;;;;;;1999.90;999.90;;;;;;;9.01;100.00;94066.19;5086573;28;20180;-59
2023/03/26 09:02:33;;;;;;;1999.90;999.90;;;;;;;9.07;100.00;94078.06;5086381;28;20172;-59
2023/03/26 09:05:35;;;;;;;1999.90;999.90;;;;;;;9.05;100.00;94085.91;5086346;28;20248;-59
2023/03/26 09:08:23;;;;;;;1999.90;999.90;;;;;;;9.20;100.00;94091.78;5085919;28;20165;-59
2023/03/26 09:11:12;;;;;;;1999.90;999.90;;;;;;;9.30;100.00;94086.09;5086080;28;20166;-59
2023/03/26 09:14:10;;;;;;;1999.90;999.90;;;;;;;9.12;100.00;94099.38;5086536;28;20200;-59
2023/03/26 09:16:42;;;;;;;1999.90;999.90;;;;;;;8.89;100.00;94121.28;5085703;28;20217;-59
2023/03/26 09:19:41;;;;;;;1999.90;999.90;;;;;;;8.76;100.00;94141.41;5085111;28;20217;-59
2023/03/26 09:22:15;;;;;;;1999.90;999.90;;;;;;;8.77;100.00;94143.72;5085944;28;20163;-60
2023/03/26 09:24:56;;;;;;;1999.90;999.90;;;;;;;8.83;100.00;94117.53;5085666;28;20161;-59
2023/03/26 09:27:57;;;;;;;1999.90;999.90;;;;;;;8.86;100.00;94078.56;5086081;28;20153;-59
2023/03/26 09:30:53;;;;;;;1999.90;999.90;;;;;;;8.87;100.00;94063.78;5085963;28;20173;-59
2023/03/26 09:33:30;;;;;;;1999.90;999.90;;;;;;;8.84;100.00;94058.41;5085790;28;20196;-59
2023/03/26 09:36:17;;;;;;;1999.90;999.90;;;;;;;8.71;100.00;94052.88;5085913;28;20228;-59
2023/03/26 09:38:52;;;;;;;1999.90;999.90;;;;;;;8.71;100.00;94055.59;5085452;28;20164;-59
2023/03/26 09:41:51;;;;;;;1999.90;999.90;;;;;;;8.50;100.00;94061.53;5085909;28;20172;-59
2023/03/26 09:44:32;;;;;;;1999.90;999.90;;;;;;;8.45;100.00;94036.78;5085732;28;20169;-59
2023/03/26 09:47:22;;;;;;;1999.90;999.90;;;;;;;8.43;100.00;93999.13;5085643;28;20168;-59
2023/03/26 09:50:12;;;;;;;1999.90;999.90;;;;;;;8.51;100.00;93946.06;5085859;28;20170;-59
2023/03/26 09:53:17;;;;;;;1999.90;999.90;;;;;;;8.58;100.00;93877.13;5085602;28;20189;-59
2023/03/26 09:55:51;;;;;;;1999.90;999.90;;;;;;;8.68;100.00;93794.47;5054715;28;20177;-59
2023/03/26 09:58:25;;;;;;;1999.90;999.90;;;;;;;8.72;100.00;93741.47;5085373;28;20153;-58
2023/03/26 10:01:16;;;;;;;1999.90;999.90;;;;;;;8.79;100.00;93702.41;5084859;28;20167;-59
2023/03/26 10:04:09;;;;;;;1999.90;999.90;;;;;;;8.85;100.00;93657.88;5085443;28;20198;-59
2023/03/26 10:06:43;;;;;;;1999.90;999.90;;;;;;;8.77;100.00;93623.16;5085255;28;20158;-59
2023/03/26 10:09:37;;;;;;;1999.90;999.90;;;;;;;8.74;100.00;93591.38;5085270;28;20233;-59
2023/03/26 10:12:20;;;;;;;1999.90;999.90;;;;;;;8.75;100.00;93554.81;5084260;28;20173;-60
2023/03/26 10:14:52;;;;;;;1999.90;999.90;;;;;;;8.76;100.00;93557.09;5084793;28;20265;-59
2023/03/26 10:17:42;;;;;;;1999.90;999.90;;;;;;;8.58;100.00;93540.56;5085297;28;20167;-59
2023/03/26 10:20:30;;;;;;;1999.90;999.90;;;;;;;8.48;100.00;93536.19;5084434;28;20157;-59
2023/03/26 10:23:26;;;;;;;1999.90;999.90;;;;;;;8.44;100.00;93526.59;5084647;28;20157;-58
2023/03/26 10:26:20;;;;;;;1999.90;999.90;;;;;;;8.53;100.00;93500.28;5084842;28;20162;-59
2023/03/26 10:29:07;;;;;;;1999.90;999.90;;;;;;;8.67;100.00;93445.41;5084288;28;20223;-59
2023/03/26 10:31:42;;;;;;;1999.90;999.90;;;;;;;8.77;100.00;93416.34;5084262;28;20192;-58
2023/03/26 10:34:35;;;;;;;1999.90;999.90;;;;;;;8.81;100.00;93390.53;5084655;28;20198;-59
2023/03/26 10:37:19;;;;;;;1999.90;999.90;;;;;;;8.89;100.00;93375.47;5084240;28;20193;-58
2023/03/26 10:39:45;;;;;;;1999.90;999.90;;;;;;;8.86;100.00;93365.47;5084559;28;20172;-61
2023/03/26 10:42:30;;;;;;;1999.90;999.90;;;;;;;8.81;100.00;93371.47;5084655;28;20241;-60
2023/03/26 10:45:17;;;;;;;1999.90;999.90;;;;;;;8.73;100.00;93552.50;5084579;28;20183;-59
2023/03/26 10:48:20;;;;;;;1999.90;999.90;;;;;;;8.65;100.00;93605.63;5084322;28;20172;-59
2023/03/26 10:51:05;;;;;;;1999.90;999.90;;;;;;;8.63;100.00;93585.50;5084258;28;20165;-60
2023/03/26 10:53:53;;;;;;;1999.90;999.90;;;;;;;8.55;100.00;93559.69;5084554;28;20272;-58
2023/03/26 10:56:27;;;;;;;1999.90;999.90;;;;;;;8.56;100.00;93526.59;5083981;28;20161;-58
2023/03/26 10:58:55;;;;;;;1999.90;999.90;;;;;;;8.52;100.00;93519.78;5084430;28;20157;-58
2023/03/26 11:01:59;;;;;;;1999.90;999.90;;;;;;;8.45;100.00;93490.81;5084441;28;20168;-57
2023/03/26 11:04:42;;;;;;;1999.90;999.90;;;;;;;8.44;100.00;93445.00;5050577;28;20332;-58
2023/03/26 11:07:27;;;;;;;1999.90;999.90;;;;;;;8.54;100.00;93400.41;5084353;28;20165;-59
2023/03/26 11:10:18;;;;;;;1999.90;999.90;;;;;;;8.55;100.00;93385.59;5084328;28;20189;-59
2023/03/26 11:12:54;;;;;;;1999.90;999.90;;;;;;;8.55;100.00;93364.59;5084347;28;20157;-58
2023/03/26 11:15:26;;;;;;;1999.90;999.90;;;;;;;8.62;100.00;93339.88;5084314;28;20165;-58
2023/03/26 11:18:12;;;;;;;1999.90;999.90;;;;;;;8.66;100.00;93318.75;5083899;28;20232;-61